Time;durP1;ratioP1;P1;durP2;ratioP2;P2;SDS_P1;SDS_P2;PMS_P1;PMS_P2;Temp;Humidity;BMP_temperature;BMP_pressure;BME280_temperature;BME280_humidity;BME280_pressure;Samples;Min_cycle;Max_cycle;Signal;HPM_P1;HPM_P2
2021/07/09 00:02:06;;;;;;;4.95;3.83;;;;;;;;;;4351833;32;20202;-70
2021/07/09 00:04:32;;;;;;;8.35;4.82;;;;;;;;;;4363396;32;20228;-70
2021/07/09 00:06:58;;;;;;;7.45;4.15;;;;;;;;;;4363442;32;20203;-70
2021/07/09 00:09:24;;;;;;;6.50;4.65;;;;;;;;;;4363421;32;20226;-70
2021/07/09 00:11:51;;;;;;;9.07;4.10;;;;;;;;;;4349394;32;20614;-70
2021/07/09 00:14:18;;;;;;;7.62;4.12;;;;;;;;;;4349408;32;20512;-72
2021/07/09 00:16:45;;;;;;;5.78;3.47;;;;;;;;;;4337293;32;20480;-71
2021/07/09 00:19:11;;;;;;;7.72;4.87;;;;;;;;;;4363167;32;20122;-70
2021/07/09 00:21:37;;;;;;;12.02;4.97;;;;;;;;;;4363088;32;20122;-70
2021/07/09 00:24:04;;;;;;;6.47;4.35;;;;;;;;;;4336696;32;20106;-70
2021/07/09 00:26:30;;;;;;;5.80;4.25;;;;;;;;;;4363017;32;20137;-70
2021/07/09 00:28:57;;;;;;;7.70;4.30;;;;;;;;;;4349485;32;20110;-70
2021/07/09 00:31:24;;;;;;;11.68;4.75;;;;;;;;;;4349481;32;20230;-70
2021/07/09 00:33:50;;;;;;;8.50;4.32;;;;;;;;;;4363314;32;20112;-70
2021/07/09 00:36:16;;;;;;;7.62;4.40;;;;;;;;;;4349226;32;20145;-70
2021/07/09 00:38:43;;;;;;;6.50;4.80;;;;;;;;;;4349232;32;20222;-71
2021/07/09 00:41:09;;;;;;;10.70;4.68;;;;;;;;;;4349073;32;20109;-70
2021/07/09 00:43:35;;;;;;;6.37;4.50;;;;;;;;;;4363030;32;20205;-70
2021/07/09 00:46:01;;;;;;;6.57;5.30;;;;;;;;;;4362997;32;20531;-70
2021/07/09 00:48:28;;;;;;;6.80;4.72;;;;;;;;;;4362899;32;20445;-70
2021/07/09 00:50:57;;;;;;;6.18;4.57;;;;;;;;;;4363097;32;20109;-71
2021/07/09 00:53:22;;;;;;;7.60;4.32;;;;;;;;;;4363078;32;20098;-70
2021/07/09 00:55:48;;;;;;;7.28;4.78;;;;;;;;;;4362997;32;20124;-71
2021/07/09 00:58:14;;;;;;;5.50;4.72;;;;;;;;;;4362630;32;20211;-71
2021/07/09 01:00:40;;;;;;;5.10;4.22;;;;;;;;;;4336862;32;20090;-70
2021/07/09 01:03:07;;;;;;;9.15;4.35;;;;;;;;;;4349025;32;20191;-71
2021/07/09 01:05:33;;;;;;;6.57;4.53;;;;;;;;;;4362828;32;20100;-71
2021/07/09 01:07:59;;;;;;;6.47;4.60;;;;;;;;;;4349050;32;20090;-71
2021/07/09 01:10:25;;;;;;;7.53;3.67;;;;;;;;;;4349080;32;20125;-71
2021/07/09 01:12:51;;;;;;;5.82;4.40;;;;;;;;;;4349058;32;20113;-70
2021/07/09 01:15:18;;;;;;;7.60;4.32;;;;;;;;;;4348685;32;20449;-70
2021/07/09 01:17:44;;;;;;;8.85;4.85;;;;;;;;;;4348849;32;20094;-71
2021/07/09 01:20:12;;;;;;;10.38;4.70;;;;;;;;;;4348783;32;20214;-70
2021/07/09 01:22:39;;;;;;;7.78;4.75;;;;;;;;;;4362777;32;20094;-71
2021/07/09 01:25:09;;;;;;;5.30;4.18;;;;;;;;;;4348838;32;20105;-71
2021/07/09 01:27:36;;;;;;;7.95;4.68;;;;;;;;;;4348765;32;20098;-70
2021/07/09 01:30:05;;;;;;;9.38;6.40;;;;;;;;;;4336620;32;20129;-71
2021/07/09 01:32:31;;;;;;;18.87;6.65;;;;;;;;;;4349057;32;20283;-70
2021/07/09 01:34:57;;;;;;;7.80;5.12;;;;;;;;;;4361753;32;20157;-70
2021/07/09 01:37:23;;;;;;;10.85;4.90;;;;;;;;;;4362484;32;20094;-70
2021/07/09 01:39:49;;;;;;;10.73;5.18;;;;;;;;;;4348754;32;20093;-71
2021/07/09 01:42:14;;;;;;;7.00;4.47;;;;;;;;;;4362401;32;20184;-71
2021/07/09 01:44:42;;;;;;;12.00;5.55;;;;;;;;;;4348976;32;20516;-71
2021/07/09 01:47:08;;;;;;;7.72;4.80;;;;;;;;;;4362361;32;20122;-71
2021/07/09 01:49:59;;;;;;;7.78;5.05;;;;;;;;;;4362667;32;20429;-71
2021/07/09 01:52:26;;;;;;;8.63;5.12;;;;;;;;;;4348723;32;20117;-70
2021/07/09 01:54:52;;;;;;;9.50;4.57;;;;;;;;;;4362369;32;20109;-70
2021/07/09 01:57:18;;;;;;;7.35;5.10;;;;;;;;;;4335904;32;20517;-70
2021/07/09 01:59:44;;;;;;;15.57;5.25;;;;;;;;;;4348347;32;20198;-70
2021/07/09 02:02:10;;;;;;;6.35;4.45;;;;;;;;;;4336287;32;20192;-71
2021/07/09 02:04:50;;;;;;;9.07;5.07;;;;;;;;;;4348551;32;20121;-70
2021/07/09 02:07:17;;;;;;;7.40;5.40;;;;;;;;;;4336964;32;20145;-71
2021/07/09 02:09:44;;;;;;;7.70;5.62;;;;;;;;;;4336218;32;20195;-71
2021/07/09 02:12:10;;;;;;;8.32;4.95;;;;;;;;;;4362057;32;20611;-70
2021/07/09 02:14:36;;;;;;;6.93;5.10;;;;;;;;;;4348324;32;20129;-71
2021/07/09 02:17:06;;;;;;;9.93;5.43;;;;;;;;;;4347877;32;20227;-71
2021/07/09 02:19:32;;;;;;;8.60;5.35;;;;;;;;;;4362115;32;20106;-71
2021/07/09 02:21:58;;;;;;;11.48;5.35;;;;;;;;;;4361922;32;20206;-71
2021/07/09 02:24:24;;;;;;;8.38;5.00;;;;;;;;;;4323813;32;20126;-72
2021/07/09 02:26:49;;;;;;;7.43;5.70;;;;;;;;;;4361962;32;20112;-71
2021/07/09 02:29:15;;;;;;;11.02;4.97;;;;;;;;;;4335969;32;20177;-72
2021/07/09 02:31:41;;;;;;;6.78;4.18;;;;;;;;;;4361898;32;20105;-71
2021/07/09 02:34:07;;;;;;;7.10;4.40;;;;;;;;;;4348027;32;20478;-72
2021/07/09 02:36:33;;;;;;;9.00;5.25;;;;;;;;;;4361860;32;20145;-71
2021/07/09 02:38:59;;;;;;;6.50;4.78;;;;;;;;;;4362198;32;20102;-70
2021/07/09 02:41:24;;;;;;;10.07;5.03;;;;;;;;;;4362008;32;20110;-70
2021/07/09 02:43:50;;;;;;;7.35;4.03;;;;;;;;;;4362148;32;20207;-71
2021/07/09 02:46:16;;;;;;;11.12;5.80;;;;;;;;;;4361926;32;20114;-70
2021/07/09 02:48:42;;;;;;;10.65;6.03;;;;;;;;;;4363968;32;20125;-67
2021/07/09 02:51:08;;;;;;;8.02;4.60;;;;;;;;;;4363929;32;20122;-69
2021/07/09 02:53:33;;;;;;;8.15;4.90;;;;;;;;;;4350311;32;20445;-68
2021/07/09 02:55:59;;;;;;;12.43;5.72;;;;;;;;;;4363792;32;20526;-79
2021/07/09 02:58:25;;;;;;;10.85;5.65;;;;;;;;;;4364295;32;20134;-66
2021/07/09 03:00:51;;;;;;;11.95;5.22;;;;;;;;;;4363353;32;20524;-66
2021/07/09 03:03:17;;;;;;;9.68;5.28;;;;;;;;;;4361877;32;20105;-66
2021/07/09 03:05:43;;;;;;;13.23;6.57;;;;;;;;;;4362200;32;20236;-66
2021/07/09 03:08:09;;;;;;;5.93;4.68;;;;;;;;;;4350107;32;20608;-66
2021/07/09 03:10:35;;;;;;;7.30;5.45;;;;;;;;;;4364195;32;20117;-69
2021/07/09 03:13:00;;;;;;;10.85;5.18;;;;;;;;;;4364045;32;20098;-70
2021/07/09 03:15:26;;;;;;;13.52;6.35;;;;;;;;;;4364137;32;20158;-69
2021/07/09 03:17:52;;;;;;;11.88;5.45;;;;;;;;;;4364215;32;20097;-70
2021/07/09 03:20:18;;;;;;;11.95;5.75;;;;;;;;;;4363873;32;20129;-67
2021/07/09 03:22:44;;;;;;;10.13;3.87;;;;;;;;;;4363747;32;20117;-67
2021/07/09 03:25:12;;;;;;;7.87;4.57;;;;;;;;;;4363658;32;20134;-69
2021/07/09 03:27:38;;;;;;;9.48;5.00;;;;;;;;;;4363653;32;20639;-69
2021/07/09 03:30:07;;;;;;;10.02;4.22;;;;;;;;;;4363887;32;20151;-67
2021/07/09 03:32:33;;;;;;;7.03;4.53;;;;;;;;;;4363923;32;20426;-69
2021/07/09 03:34:59;;;;;;;8.93;6.47;;;;;;;;;;4337461;32;20236;-67
2021/07/09 03:37:25;;;;;;;7.75;5.95;;;;;;;;;;4363496;32;20138;-67
2021/07/09 03:39:51;;;;;;;8.60;5.47;;;;;;;;;;4363776;32;20105;-69
2021/07/09 03:42:18;;;;;;;11.93;6.35;;;;;;;;;;4363848;32;20114;-69
2021/07/09 03:44:44;;;;;;;8.00;3.55;;;;;;;;;;4349747;32;20129;-68
2021/07/09 03:47:10;;;;;;;8.30;5.05;;;;;;;;;;4337105;32;20632;-69
2021/07/09 03:49:35;;;;;;;8.00;5.97;;;;;;;;;;4363581;32;20125;-69
2021/07/09 03:52:01;;;;;;;7.87;5.68;;;;;;;;;;4363376;32;20556;-68
2021/07/09 03:54:27;;;;;;;12.98;6.50;;;;;;;;;;4349815;32;20095;-70
2021/07/09 03:56:53;;;;;;;6.37;4.30;;;;;;;;;;4363370;32;20121;-71
2021/07/09 03:59:19;;;;;;;10.48;5.07;;;;;;;;;;4348872;32;20622;-69
2021/07/09 04:01:45;;;;;;;11.73;6.07;;;;;;;;;;4337340;32;20102;-70
2021/07/09 04:04:11;;;;;;;13.10;5.43;;;;;;;;;;4363454;32;20102;-70
2021/07/09 04:06:37;;;;;;;7.05;5.62;;;;;;;;;;4363134;32;20137;-71
2021/07/09 04:09:03;;;;;;;13.85;6.72;;;;;;;;;;4363232;32;20539;-70
2021/07/09 04:11:29;;;;;;;9.00;5.45;;;;;;;;;;4363001;32;20500;-70
2021/07/09 04:13:55;;;;;;;13.15;7.28;;;;;;;;;;4349404;32;20539;-70
2021/07/09 04:16:20;;;;;;;15.85;6.60;;;;;;;;;;4363147;32;20482;-70
2021/07/09 04:18:46;;;;;;;7.97;5.37;;;;;;;;;;4363409;32;20205;-70
2021/07/09 04:21:12;;;;;;;11.05;6.32;;;;;;;;;;4349260;32;20106;-70
2021/07/09 04:23:38;;;;;;;8.85;5.65;;;;;;;;;;4363443;32;20178;-70
2021/07/09 04:26:04;;;;;;;16.60;5.97;;;;;;;;;;4362941;32;20121;-70
2021/07/09 04:28:30;;;;;;;16.75;6.15;;;;;;;;;;4349285;32;20520;-70
2021/07/09 04:30:55;;;;;;;9.95;6.40;;;;;;;;;;4349205;32;20465;-69
2021/07/09 04:33:22;;;;;;;12.25;5.75;;;;;;;;;;4349213;32;20097;-70
2021/07/09 04:35:52;;;;;;;7.37;5.65;;;;;;;;;;4349176;32;20120;-70
2021/07/09 04:38:18;;;;;;;9.15;6.10;;;;;;;;;;4349080;32;20106;-70
2021/07/09 04:40:44;;;;;;;12.88;6.12;;;;;;;;;;4362950;32;20122;-70
2021/07/09 04:43:10;;;;;;;8.98;6.22;;;;;;;;;;4362828;32;20112;-70
2021/07/09 04:45:36;;;;;;;11.68;7.50;;;;;;;;;;4349182;32;20105;-70
2021/07/09 04:48:02;;;;;;;9.98;6.28;;;;;;;;;;4336809;32;20117;-70
2021/07/09 04:50:27;;;;;;;11.70;5.75;;;;;;;;;;4362897;32;20523;-70
2021/07/09 04:52:53;;;;;;;9.07;5.80;;;;;;;;;;4349060;32;20134;-70
2021/07/09 04:55:19;;;;;;;9.38;6.12;;;;;;;;;;4349114;32;20125;-70
2021/07/09 04:57:45;;;;;;;15.48;6.18;;;;;;;;;;4346418;33;20102;-70
2021/07/09 05:00:11;;;;;;;7.93;4.82;;;;;;;;;;4334185;33;20126;-70
2021/07/09 05:02:37;;;;;;;13.52;6.82;;;;;;;;;;4347970;32;20179;-70
2021/07/09 05:05:10;;;;;;;10.27;7.05;;;;;;;;;;4346481;33;20118;-70
2021/07/09 05:07:36;;;;;;;11.12;6.45;;;;;;;;;;4346516;33;20113;-70
2021/07/09 05:10:03;;;;;;;7.25;5.20;;;;;;;;;;4347809;32;20110;-70
2021/07/09 05:12:29;;;;;;;11.05;6.90;;;;;;;;;;4347998;32;20099;-70
2021/07/09 05:14:55;;;;;;;10.23;6.87;;;;;;;;;;4347846;32;20211;-70
2021/07/09 05:17:21;;;;;;;9.07;4.60;;;;;;;;;;4347621;32;20110;-70
2021/07/09 05:19:47;;;;;;;11.05;6.60;;;;;;;;;;4347875;32;20129;-70
2021/07/09 05:22:13;;;;;;;9.73;6.45;;;;;;;;;;4347625;32;20470;-70
2021/07/09 05:24:39;;;;;;;10.82;5.57;;;;;;;;;;4347580;32;20130;-70
2021/07/09 05:27:05;;;;;;;5.15;2.95;;;;;;;;;;4333889;33;20094;-70
2021/07/09 05:29:31;;;;;;;10.48;5.82;;;;;;;;;;4347758;32;20137;-70
2021/07/09 05:31:58;;;;;;;9.70;5.40;;;;;;;;;;4334271;33;20570;-70
2021/07/09 05:34:24;;;;;;;7.82;5.32;;;;;;;;;;4346072;33;20137;-70
2021/07/09 05:36:50;;;;;;;9.93;5.50;;;;;;;;;;4346343;33;20292;-70
2021/07/09 05:39:16;;;;;;;8.15;5.25;;;;;;;;;;4346327;33;20283;-70
2021/07/09 05:41:43;;;;;;;9.27;5.53;;;;;;;;;;4347670;32;20125;-70
2021/07/09 05:44:10;;;;;;;8.25;5.70;;;;;;;;;;4347683;32;20181;-70
2021/07/09 05:46:36;;;;;;;5.80;3.53;;;;;;;;;;4346039;33;20191;-70
2021/07/09 05:49:01;;;;;;;7.57;4.32;;;;;;;;;;4347737;33;20122;-71
2021/07/09 05:51:28;;;;;;;5.20;4.07;;;;;;;;;;4347646;32;20114;-71
2021/07/09 05:53:53;;;;;;;5.95;4.55;;;;;;;;;;4347632;32;20110;-70
2021/07/09 05:56:19;;;;;;;12.93;5.72;;;;;;;;;;4347422;32;20616;-70
2021/07/09 05:58:45;;;;;;;6.43;4.35;;;;;;;;;;4345969;33;20153;-70
2021/07/09 06:01:11;;;;;;;8.15;3.87;;;;;;;;;;4346191;33;20125;-70
2021/07/09 06:03:37;;;;;;;5.82;4.53;;;;;;;;;;4347458;32;20125;-71
2021/07/09 06:06:03;;;;;;;6.82;4.18;;;;;;;;;;4345795;33;20221;-70
2021/07/09 06:08:29;;;;;;;5.28;3.83;;;;;;;;;;4345924;33;20129;-70
2021/07/09 06:10:56;;;;;;;2.55;2.35;;;;;;;;;;4347346;32;20102;-70
2021/07/09 06:13:22;;;;;;;10.70;5.43;;;;;;;;;;4345872;33;20126;-70
2021/07/09 06:15:48;;;;;;;6.97;4.10;;;;;;;;;;4347438;32;20118;-70
2021/07/09 06:18:14;;;;;;;4.87;3.35;;;;;;;;;;4347153;32;20121;-70
2021/07/09 06:20:40;;;;;;;2.70;2.50;;;;;;;;;;4345633;33;20509;-70
2021/07/09 06:23:06;;;;;;;12.30;4.37;;;;;;;;;;4345289;33;20535;-69
2021/07/09 06:25:32;;;;;;;6.40;3.72;;;;;;;;;;4347220;32;20105;-70
2021/07/09 06:27:57;;;;;;;6.62;4.72;;;;;;;;;;4345920;33;20110;-70
2021/07/09 06:30:23;;;;;;;8.85;5.22;;;;;;;;;;4345740;33;20129;-70
2021/07/09 06:32:49;;;;;;;2.15;1.95;;;;;;;;;;4347077;32;20587;-70
2021/07/09 06:35:15;;;;;;;7.10;5.30;;;;;;;;;;4346940;32;20121;-70
2021/07/09 06:37:41;;;;;;;7.85;3.75;;;;;;;;;;4345730;33;20086;-70
2021/07/09 06:40:08;;;;;;;5.05;3.40;;;;;;;;;;4345422;33;20149;-70
2021/07/09 06:42:35;;;;;;;3.55;2.97;;;;;;;;;;4346939;32;20118;-70
2021/07/09 06:45:01;;;;;;;7.47;4.12;;;;;;;;;;4346893;32;20185;-70
2021/07/09 06:47:26;;;;;;;5.97;3.70;;;;;;;;;;4346291;32;20137;-70
2021/07/09 06:49:52;;;;;;;6.03;4.50;;;;;;;;;;4345463;33;20118;-70
2021/07/09 06:52:18;;;;;;;4.25;3.05;;;;;;;;;;4346691;32;20194;-70
2021/07/09 06:54:44;;;;;;;7.37;4.68;;;;;;;;;;4346739;32;20136;-70
2021/07/09 06:57:10;;;;;;;6.40;4.40;;;;;;;;;;4332676;33;20126;-70
2021/07/09 06:59:36;;;;;;;8.30;4.68;;;;;;;;;;4345389;33;20094;-70
2021/07/09 07:02:02;;;;;;;7.07;5.37;;;;;;;;;;4345270;33;20268;-70
2021/07/09 07:04:28;;;;;;;6.68;4.03;;;;;;;;;;4346657;33;20125;-70
2021/07/09 07:06:54;;;;;;;3.15;2.65;;;;;;;;;;4345083;33;20118;-71
2021/07/09 07:09:20;;;;;;;3.83;2.30;;;;;;;;;;4345166;33;20613;-71
2021/07/09 07:11:46;;;;;;;7.20;5.12;;;;;;;;;;4346486;32;20107;-71
2021/07/09 07:14:12;;;;;;;5.30;2.92;;;;;;;;;;4346503;32;20500;-70
2021/07/09 07:16:38;;;;;;;7.82;3.10;;;;;;;;;;4332702;33;20126;-71
2021/07/09 07:19:03;;;;;;;7.15;4.28;;;;;;;;;;4344958;33;20533;-71
2021/07/09 07:21:29;;;;;;;7.53;3.95;;;;;;;;;;4346558;32;20192;-70
2021/07/09 07:23:55;;;;;;;5.95;3.47;;;;;;;;;;4332715;33;20215;-70
2021/07/09 07:26:21;;;;;;;5.72;4.05;;;;;;;;;;4346571;32;20125;-71
2021/07/09 07:28:47;;;;;;;4.85;2.85;;;;;;;;;;4346390;32;20610;-71
2021/07/09 07:31:13;;;;;;;4.12;3.60;;;;;;;;;;4344756;33;20126;-71
2021/07/09 07:33:39;;;;;;;6.25;3.72;;;;;;;;;;4345916;33;20129;-71
2021/07/09 07:36:05;;;;;;;7.95;4.32;;;;;;;;;;4348664;32;20121;-71
2021/07/09 07:38:31;;;;;;;7.35;4.00;;;;;;;;;;4348891;32;20144;-71
2021/07/09 07:40:57;;;;;;;6.75;3.83;;;;;;;;;;4347488;33;20524;-71
2021/07/09 07:43:23;;;;;;;8.18;4.68;;;;;;;;;;4348570;32;20106;-71
2021/07/09 07:45:49;;;;;;;11.60;4.25;;;;;;;;;;4348596;32;20444;-71
2021/07/09 07:48:14;;;;;;;9.10;4.32;;;;;;;;;;4347071;33;20117;-71
2021/07/09 07:50:40;;;;;;;5.03;3.65;;;;;;;;;;4348578;32;20118;-71
2021/07/09 07:53:06;;;;;;;4.80;3.33;;;;;;;;;;4347077;33;20118;-71
2021/07/09 07:55:32;;;;;;;3.58;2.78;;;;;;;;;;4347127;33;20140;-71
2021/07/09 07:57:58;;;;;;;6.15;3.85;;;;;;;;;;4357807;32;20122;-71
2021/07/09 08:00:24;;;;;;;7.78;3.97;;;;;;;;;;4363232;32;20126;-71
2021/07/09 08:02:49;;;;;;;5.82;3.90;;;;;;;;;;4363274;32;20105;-71
2021/07/09 08:05:16;;;;;;;4.47;3.28;;;;;;;;;;4349517;32;20129;-71
2021/07/09 08:07:42;;;;;;;4.53;3.33;;;;;;;;;;4363232;32;20203;-72
2021/07/09 08:10:08;;;;;;;3.67;2.10;;;;;;;;;;4337209;32;20222;-72
2021/07/09 08:12:34;;;;;;;6.03;3.62;;;;;;;;;;4363200;32;20200;-71
2021/07/09 08:15:00;;;;;;;5.65;3.37;;;;;;;;;;4337205;32;20121;-71
2021/07/09 08:17:26;;;;;;;6.28;3.83;;;;;;;;;;4337359;32;20113;-71
2021/07/09 08:19:52;;;;;;;6.60;3.92;;;;;;;;;;4363076;32;20126;-71
2021/07/09 08:22:18;;;;;;;7.35;3.90;;;;;;;;;;4349341;32;20133;-71
2021/07/09 08:24:44;;;;;;;6.30;4.15;;;;;;;;;;4349596;32;20105;-71
2021/07/09 08:27:10;;;;;;;4.82;2.53;;;;;;;;;;4363000;32;20209;-71
2021/07/09 08:29:36;;;;;;;10.68;4.47;;;;;;;;;;4363069;32;20149;-71
2021/07/09 08:32:02;;;;;;;7.65;5.57;;;;;;;;;;4363130;32;20092;-71
2021/07/09 08:34:28;;;;;;;7.45;4.28;;;;;;;;;;4363371;32;20457;-70
2021/07/09 08:36:53;;;;;;;5.30;3.65;;;;;;;;;;4349483;32;20129;-70
2021/07/09 08:39:19;;;;;;;9.25;4.25;;;;;;;;;;4349308;32;20135;-70
2021/07/09 08:41:46;;;;;;;3.65;2.83;;;;;;;;;;4349042;32;20197;-71
2021/07/09 08:44:12;;;;;;;3.40;2.62;;;;;;;;;;4348898;32;20203;-71
2021/07/09 08:46:38;;;;;;;6.25;4.57;;;;;;;;;;4349012;32;20098;-71
2021/07/09 08:49:04;;;;;;;5.85;3.62;;;;;;;;;;4349232;32;20614;-71
2021/07/09 08:51:30;;;;;;;7.25;4.53;;;;;;;;;;4336980;32;20117;-71
2021/07/09 08:53:55;;;;;;;7.28;4.00;;;;;;;;;;4363162;32;20225;-71
2021/07/09 08:56:21;;;;;;;7.05;4.25;;;;;;;;;;4362728;32;20177;-71
2021/07/09 08:58:47;;;;;;;9.07;3.97;;;;;;;;;;4362703;32;20118;-71
2021/07/09 09:01:13;;;;;;;6.50;4.00;;;;;;;;;;4362646;32;20204;-71
2021/07/09 09:03:39;;;;;;;7.72;3.70;;;;;;;;;;4362803;32;20197;-71
2021/07/09 09:06:05;;;;;;;7.47;3.97;;;;;;;;;;4348873;32;20122;-70
2021/07/09 09:08:35;;;;;;;5.57;4.03;;;;;;;;;;4337160;32;20551;-71
2021/07/09 09:11:01;;;;;;;4.87;3.60;;;;;;;;;;4362652;32;20108;-71
2021/07/09 09:13:29;;;;;;;8.05;3.85;;;;;;;;;;4362662;32;20202;-71
2021/07/09 09:16:10;;;;;;;6.87;4.05;;;;;;;;;;4362749;32;20101;-71
2021/07/09 09:18:47;;;;;;;5.12;3.60;;;;;;;;;;4349173;32;20426;-71
2021/07/09 09:21:20;;;;;;;5.90;4.07;;;;;;;;;;4349755;32;20101;-71
2021/07/09 09:23:50;;;;;;;9.63;4.55;;;;;;;;;;4348871;32;20127;-71
2021/07/09 09:26:39;;;;;;;5.93;4.47;;;;;;;;;;4348894;32;20200;-71
2021/07/09 09:29:05;;;;;;;5.22;3.62;;;;;;;;;;4363111;32;20201;-71
2021/07/09 09:31:34;;;;;;;5.30;3.65;;;;;;;;;;4348918;32;20231;-71
2021/07/09 09:34:01;;;;;;;7.68;3.72;;;;;;;;;;4336570;32;20122;-71
2021/07/09 09:36:27;;;;;;;5.90;3.83;;;;;;;;;;4348807;32;20190;-71
2021/07/09 09:38:53;;;;;;;3.20;2.55;;;;;;;;;;4348555;32;20185;-70
2021/07/09 09:41:19;;;;;;;3.33;2.87;;;;;;;;;;4362922;32;20113;-70
2021/07/09 09:43:46;;;;;;;4.25;3.67;;;;;;;;;;4348761;32;20468;-69
2021/07/09 09:46:14;;;;;;;10.02;4.07;;;;;;;;;;4336619;32;20094;-69
2021/07/09 09:48:45;;;;;;;4.68;3.50;;;;;;;;;;4336834;32;20173;-68
2021/07/09 09:51:29;;;;;;;5.72;3.75;;;;;;;;;;4362157;32;20102;-68
2021/07/09 09:54:06;;;;;;;5.43;3.25;;;;;;;;;;4362325;32;20548;-68
2021/07/09 09:56:36;;;;;;;4.55;3.33;;;;;;;;;;4361356;32;20666;-69
2021/07/09 09:59:11;;;;;;;3.75;3.00;;;;;;;;;;4362196;32;20521;-68
2021/07/09 10:01:37;;;;;;;6.40;3.53;;;;;;;;;;4362399;32;20088;-68
2021/07/09 10:04:03;;;;;;;8.65;4.03;;;;;;;;;;4362273;32;20125;-68
2021/07/09 10:06:28;;;;;;;4.75;3.12;;;;;;;;;;4362088;32;20134;-68
2021/07/09 10:08:54;;;;;;;8.05;3.15;;;;;;;;;;4323921;32;20177;-68
2021/07/09 10:11:20;;;;;;;4.90;2.87;;;;;;;;;;4336173;32;20211;-68
2021/07/09 10:13:46;;;;;;;8.50;3.65;;;;;;;;;;4348283;32;20516;-67
2021/07/09 10:16:12;;;;;;;4.82;3.15;;;;;;;;;;4361988;32;20187;-68
2021/07/09 10:18:38;;;;;;;4.43;3.37;;;;;;;;;;4362114;32;20216;-68
2021/07/09 10:21:04;;;;;;;10.02;3.80;;;;;;;;;;4348249;32;20102;-68
2021/07/09 10:23:30;;;;;;;3.00;2.55;;;;;;;;;;4348091;32;20520;-68
2021/07/09 10:25:56;;;;;;;6.37;3.58;;;;;;;;;;4361928;32;20513;-67
2021/07/09 10:28:22;;;;;;;10.10;3.85;;;;;;;;;;4348257;32;20113;-68
2021/07/09 10:30:48;;;;;;;5.12;3.45;;;;;;;;;;4361779;32;20109;-68
2021/07/09 10:33:29;;;;;;;3.95;3.20;;;;;;;;;;4361995;32;20117;-68
2021/07/09 10:35:56;;;;;;;4.62;3.65;;;;;;;;;;4361719;32;20189;-68
2021/07/09 10:38:23;;;;;;;5.62;2.72;;;;;;;;;;4361622;32;20122;-67
2021/07/09 10:40:49;;;;;;;9.52;4.07;;;;;;;;;;4335948;32;20148;-68
2021/07/09 10:43:15;;;;;;;10.00;4.47;;;;;;;;;;4335672;32;20109;-68
2021/07/09 10:45:42;;;;;;;4.95;3.67;;;;;;;;;;4361667;32;20110;-68
2021/07/09 10:48:12;;;;;;;5.47;4.15;;;;;;;;;;4361573;32;20138;-68
2021/07/09 10:50:50;;;;;;;5.35;3.80;;;;;;;;;;4347926;32;20106;-68
2021/07/09 10:53:18;;;;;;;2.35;2.10;;;;;;;;;;4347938;32;20098;-69
2021/07/09 10:55:52;;;;;;;4.37;2.45;;;;;;;;;;4361745;32;20090;-69
2021/07/09 10:58:19;;;;;;;5.95;3.35;;;;;;;;;;4345185;33;20098;-69
2021/07/09 11:01:11;;;;;;;3.58;3.08;;;;;;;;;;4346607;32;20175;-69
2021/07/09 11:04:07;;;;;;;3.85;2.92;;;;;;;;;;4323073;33;20087;-70
2021/07/09 11:06:32;;;;;;;6.50;3.03;;;;;;;;;;4345579;33;20091;-72
2021/07/09 11:09:02;;;;;;;8.88;4.50;;;;;;;;;;4348041;33;20134;-76
2021/07/09 11:11:36;;;;;;;6.53;3.95;;;;;;;;;;4347084;32;20142;-69
2021/07/09 11:14:06;;;;;;;6.65;3.45;;;;;;;;;;4348748;33;20141;-70
2021/07/09 11:16:35;;;;;;;5.25;4.15;;;;;;;;;;4349191;32;20484;-69
2021/07/09 11:19:02;;;;;;;13.95;3.53;;;;;;;;;;4349127;32;20118;-69
2021/07/09 11:21:31;;;;;;;8.38;4.35;;;;;;;;;;4349223;32;20126;-69
2021/07/09 11:24:04;;;;;;;10.65;5.28;;;;;;;;;;4349609;32;20125;-70
2021/07/09 11:26:36;;;;;;;29.58;6.22;;;;;;;;;;4348738;32;20189;-68
2021/07/09 11:29:30;;;;;;;24.50;5.25;;;;;;;;;;4349004;32;20117;-69
2021/07/09 11:32:00;;;;;;;12.15;4.72;;;;;;;;;;4349245;32;20103;-69
2021/07/09 11:34:28;;;;;;;8.73;4.40;;;;;;;;;;4347715;33;20189;-68
2021/07/09 11:37:01;;;;;;;10.00;3.55;;;;;;;;;;4348906;32;20114;-69
2021/07/09 11:39:29;;;;;;;8.18;4.15;;;;;;;;;;4348993;32;20106;-68
2021/07/09 11:41:59;;;;;;;5.03;2.95;;;;;;;;;;4349026;32;20651;-69
2021/07/09 11:44:27;;;;;;;7.28;4.55;;;;;;;;;;4347660;33;20098;-70
2021/07/09 11:47:01;;;;;;;11.85;4.18;;;;;;;;;;4347527;33;20169;-70
2021/07/09 11:49:38;;;;;;;19.25;5.62;;;;;;;;;;4349041;32;20112;-70
2021/07/09 11:52:08;;;;;;;8.45;4.00;;;;;;;;;;4347470;33;20513;-69
2021/07/09 11:54:42;;;;;;;6.28;4.35;;;;;;;;;;4348993;32;20119;-69
2021/07/09 11:57:13;;;;;;;5.25;3.78;;;;;;;;;;4352997;32;20102;-69
2021/07/09 11:59:39;;;;;;;5.93;3.90;;;;;;;;;;4349928;32;20202;-70
2021/07/09 12:02:06;;;;;;;6.68;3.75;;;;;;;;;;4350136;32;20129;-70
2021/07/09 12:04:34;;;;;;;16.27;3.35;;;;;;;;;;4363708;32;20094;-68
2021/07/09 12:07:25;;;;;;;21.50;4.65;;;;;;;;;;4363750;32;20543;-69
2021/07/09 12:10:02;;;;;;;4.60;3.42;;;;;;;;;;4363740;32;20106;-69
2021/07/09 12:12:30;;;;;;;7.57;4.65;;;;;;;;;;4363720;32;20114;-68
2021/07/09 12:15:13;;;;;;;9.55;4.12;;;;;;;;;;4350146;32;20118;-69
2021/07/09 12:17:53;;;;;;;6.78;4.28;;;;;;;;;;4363632;32;20184;-70
2021/07/09 12:20:29;;;;;;;8.05;4.00;;;;;;;;;;4349115;32;20517;-69
2021/07/09 12:23:05;;;;;;;14.40;5.00;;;;;;;;;;4363416;32;20122;-69
2021/07/09 12:25:32;;;;;;;30.80;8.10;;;;;;;;;;4349615;32;20121;-70
2021/07/09 12:28:03;;;;;;;15.20;6.37;;;;;;;;;;4349644;32;20175;-69
2021/07/09 12:30:34;;;;;;;10.50;5.10;;;;;;;;;;4363311;32;20482;-70
2021/07/09 12:33:02;;;;;;;12.63;5.03;;;;;;;;;;4363673;32;20207;-69
2021/07/09 12:35:30;;;;;;;11.52;5.80;;;;;;;;;;4349737;32;20493;-69
2021/07/09 12:38:04;;;;;;;10.57;5.10;;;;;;;;;;4363515;32;20118;-69
2021/07/09 12:40:43;;;;;;;8.93;5.60;;;;;;;;;;4363154;32;20106;-69
2021/07/09 12:43:14;;;;;;;7.82;5.28;;;;;;;;;;4350626;32;20556;-69
2021/07/09 12:45:40;;;;;;;12.02;6.05;;;;;;;;;;4363308;32;20122;-69
2021/07/09 12:48:06;;;;;;;4.87;3.67;;;;;;;;;;4349331;32;20190;-69
2021/07/09 12:50:37;;;;;;;27.00;4.40;;;;;;;;;;4363218;32;20121;-69
2021/07/09 12:53:19;;;;;;;8.88;5.12;;;;;;;;;;4363232;32;20129;-69
2021/07/09 12:55:46;;;;;;;3.92;3.25;;;;;;;;;;4363405;32;20179;-69
2021/07/09 12:58:12;;;;;;;8.55;4.70;;;;;;;;;;4363106;32;20519;-69
2021/07/09 13:00:43;;;;;;;9.77;4.78;;;;;;;;;;4363161;32;20110;-70
2021/07/09 13:03:13;;;;;;;7.20;4.32;;;;;;;;;;4363568;32;20099;-69
2021/07/09 13:05:39;;;;;;;7.12;3.58;;;;;;;;;;4363397;32;20121;-69
2021/07/09 13:08:12;;;;;;;8.02;4.40;;;;;;;;;;4349299;32;20114;-70
2021/07/09 13:10:39;;;;;;;8.30;5.60;;;;;;;;;;4349330;32;20190;-70
2021/07/09 13:13:18;;;;;;;10.15;4.25;;;;;;;;;;4363005;32;20097;-69
2021/07/09 13:16:00;;;;;;;7.57;5.03;;;;;;;;;;4349643;32;20204;-69
2021/07/09 13:18:27;;;;;;;29.08;8.85;;;;;;;;;;4336899;32;20458;-69
2021/07/09 13:21:08;;;;;;;74.70;9.00;;;;;;;;;;4349267;32;20117;-67
2021/07/09 13:23:34;;;;;;;7.90;4.75;;;;;;;;;;4362860;32;20192;-68
2021/07/09 13:26:13;;;;;;;11.30;4.70;;;;;;;;;;4362913;32;20279;-68
2021/07/09 13:28:43;;;;;;;12.73;5.37;;;;;;;;;;4362884;32;20114;-69
2021/07/09 13:31:09;;;;;;;11.43;5.15;;;;;;;;;;4362556;32;20097;-68
2021/07/09 13:33:37;;;;;;;17.30;5.45;;;;;;;;;;4362889;32;20201;-68
2021/07/09 13:36:03;;;;;;;42.85;6.85;;;;;;;;;;4362781;32;20118;-73
2021/07/09 13:38:29;;;;;;;76.15;13.77;;;;;;;;;;4362433;32;20126;-70
2021/07/09 13:40:55;;;;;;;59.95;13.70;;;;;;;;;;4362667;32;20189;-68
2021/07/09 13:43:22;;;;;;;37.55;9.60;;;;;;;;;;4362486;32;20325;-72
2021/07/09 13:45:48;;;;;;;9.68;5.37;;;;;;;;;;4362578;32;20527;-74
2021/07/09 13:48:14;;;;;;;13.75;5.55;;;;;;;;;;4348404;32;20110;-72
2021/07/09 13:50:40;;;;;;;7.65;4.55;;;;;;;;;;4362289;32;20535;-70
2021/07/09 13:53:06;;;;;;;32.35;7.25;;;;;;;;;;4362331;32;20522;-71
2021/07/09 13:55:32;;;;;;;15.00;5.03;;;;;;;;;;4348544;32;20110;-72
2021/07/09 13:57:58;;;;;;;12.10;5.90;;;;;;;;;;4362426;32;20218;-69
2021/07/09 14:00:23;;;;;;;8.80;5.00;;;;;;;;;;4348540;32;20104;-70
2021/07/09 14:02:49;;;;;;;13.75;5.82;;;;;;;;;;4362237;32;20610;-71
2021/07/09 14:05:15;;;;;;;9.27;4.60;;;;;;;;;;4362242;32;20184;-74
2021/07/09 14:07:41;;;;;;;9.55;4.35;;;;;;;;;;4348487;32;20142;-73
2021/07/09 14:10:07;;;;;;;5.25;3.40;;;;;;;;;;4362147;32;20177;-71
2021/07/09 14:12:36;;;;;;;6.68;4.07;;;;;;;;;;4362162;32;20535;-71
2021/07/09 14:15:03;;;;;;;17.30;4.25;;;;;;;;;;4362029;32;20184;-71
2021/07/09 14:17:29;;;;;;;5.05;3.50;;;;;;;;;;4362001;32;20157;-71
2021/07/09 14:19:54;;;;;;;12.23;4.57;;;;;;;;;;4362061;32;20126;-70
2021/07/09 14:22:21;;;;;;;14.90;5.70;;;;;;;;;;4361869;32;20120;-72
2021/07/09 14:24:46;;;;;;;6.80;3.60;;;;;;;;;;4362073;32;20197;-72
2021/07/09 14:27:12;;;;;;;10.55;3.47;;;;;;;;;;4361999;32;20477;-70
2021/07/09 14:29:38;;;;;;;9.23;3.92;;;;;;;;;;4361930;32;20532;-72
2021/07/09 14:32:04;;;;;;;9.55;5.50;;;;;;;;;;4361855;32;20114;-72
2021/07/09 14:34:30;;;;;;;17.23;4.20;;;;;;;;;;4362056;32;20110;-71
2021/07/09 14:36:56;;;;;;;14.25;5.00;;;;;;;;;;4336145;32;20124;-72
2021/07/09 14:39:23;;;;;;;16.62;5.35;;;;;;;;;;4362741;32;20204;-71
2021/07/09 14:41:49;;;;;;;9.40;6.25;;;;;;;;;;4361971;32;20547;-72